Time;durP1;ratioP1;P1;durP2;ratioP2;P2;SDS_P1;SDS_P2;PMS_P1;PMS_P2;Temp;Humidity;BMP_temperature;BMP_pressure;BME280_temperature;BME280_humidity;BME280_pressure;Samples;Min_cycle;Max_cycle;Signal;HPM_P1;HPM_P2
2022/07/15 00:02:07;;;;;;;4.28;1.20;;;23.50;57.30;;;;;;4491722;31;20069;-69
2022/07/15 00:04:34;;;;;;;4.07;0.90;;;23.50;57.30;;;;;;4491966;31;20239;-70
2022/07/15 00:07:01;;;;;;;2.35;0.98;;;23.50;57.40;;;;;;4491713;31;20120;-70
2022/07/15 00:12:12;;;;;;;3.30;0.90;;;23.50;57.40;;;;;;4491239;31;20095;-69
2022/07/15 00:14:39;;;;;;;3.20;0.95;;;23.50;57.50;;;;;;4460422;32;20129;-69
2022/07/15 00:17:06;;;;;;;3.55;1.17;;;23.50;57.50;;;;;;4460334;32;20171;-69
2022/07/15 00:19:33;;;;;;;2.13;0.73;;;23.50;57.50;;;;;;4460035;32;20223;-69
2022/07/15 00:21:59;;;;;;;2.92;0.93;;;23.50;57.50;;;;;;4460469;32;20104;-69
2022/07/15 00:24:25;;;;;;;2.10;0.93;;;23.50;57.50;;;;;;4459183;32;20171;-70
2022/07/15 00:26:51;;;;;;;2.88;0.80;;;23.50;57.50;;;;;;4459993;32;20203;-69
2022/07/15 00:29:17;;;;;;;2.83;0.88;;;23.40;57.50;;;;;;4459201;32;20081;-70
2022/07/15 00:31:43;;;;;;;1.98;0.80;;;23.40;57.50;;;;;;4458941;32;20057;-70
2022/07/15 00:34:08;;;;;;;2.75;0.85;;;23.40;57.50;;;;;;4460249;32;20503;-70
2022/07/15 00:36:34;;;;;;;2.20;0.80;;;23.40;57.50;;;;;;4458956;32;20054;-69
2022/07/15 00:39:00;;;;;;;1.25;0.88;;;23.40;57.50;;;;;;4460225;32;20117;-69
2022/07/15 00:41:26;;;;;;;3.58;0.80;;;23.40;57.60;;;;;;4443559;32;20389;-69
2022/07/15 00:43:52;;;;;;;4.25;1.17;;;23.40;57.50;;;;;;4459246;32;20545;-69
2022/07/15 00:46:21;;;;;;;1.60;0.63;;;23.40;57.60;;;;;;4460181;32;20077;-69
2022/07/15 00:48:47;;;;;;;1.88;0.75;;;23.40;57.50;;;;;;4459913;32;20078;-69
2022/07/15 00:51:13;;;;;;;3.40;0.98;;;23.40;57.60;;;;;;4459973;32;20092;-69
2022/07/15 00:53:39;;;;;;;4.10;1.00;;;23.40;57.60;;;;;;4458746;32;20097;-69
2022/07/15 00:56:09;;;;;;;2.33;0.82;;;23.40;57.70;;;;;;4460252;32;20058;-69
2022/07/15 00:58:39;;;;;;;2.22;0.80;;;23.40;57.70;;;;;;4459784;32;20100;-70
2022/07/15 01:01:07;;;;;;;3.20;0.88;;;23.40;57.70;;;;;;4459875;32;20096;-70
2022/07/15 01:03:34;;;;;;;1.90;0.55;;;23.40;57.70;;;;;;4459829;32;20070;-69
2022/07/15 01:06:01;;;;;;;1.70;0.70;;;23.40;57.80;;;;;;4459762;32;20419;-70
2022/07/15 01:08:27;;;;;;;2.55;0.98;;;23.40;57.70;;;;;;4459929;32;20092;-69
2022/07/15 01:10:54;;;;;;;2.72;0.90;;;23.40;57.80;;;;;;4459690;32;20072;-69
2022/07/15 01:13:20;;;;;;;2.45;0.80;;;23.40;57.70;;;;;;4465478;32;20159;-70
2022/07/15 01:15:46;;;;;;;1.98;0.90;;;23.40;57.80;;;;;;4475404;32;20534;-69
2022/07/15 01:18:12;;;;;;;1.80;0.63;;;23.40;57.70;;;;;;4475476;32;20214;-69
2022/07/15 01:20:42;;;;;;;1.65;0.63;;;23.40;57.80;;;;;;4475528;32;20061;-70
2022/07/15 01:23:08;;;;;;;2.03;0.40;;;23.30;57.80;;;;;;4475291;32;20591;-70
2022/07/15 01:25:34;;;;;;;1.48;0.60;;;23.30;57.80;;;;;;4475692;32;20227;-69
2022/07/15 01:28:00;;;;;;;1.75;0.75;;;23.30;57.80;;;;;;4475234;32;20066;-69
2022/07/15 01:30:26;;;;;;;1.73;0.57;;;23.30;57.80;;;;;;4474323;32;20182;-69
2022/07/15 01:32:53;;;;;;;1.85;0.93;;;23.30;57.80;;;;;;4475325;32;20164;-69
2022/07/15 01:35:18;;;;;;;1.83;0.77;;;23.30;57.80;;;;;;4475038;32;20200;-72
2022/07/15 01:37:45;;;;;;;2.47;0.70;;;23.30;57.80;;;;;;4475261;32;20073;-69
2022/07/15 01:40:11;;;;;;;1.65;0.60;;;23.30;57.90;;;;;;4475211;32;20179;-69
2022/07/15 01:42:38;;;;;;;2.15;0.70;;;23.30;57.90;;;;;;4475087;32;20162;-69
2022/07/15 01:45:08;;;;;;;3.50;0.65;;;23.30;57.90;;;;;;4474159;32;20084;-69
2022/07/15 01:47:41;;;;;;;1.95;0.77;;;23.30;57.90;;;;;;4475345;32;20425;-70
2022/07/15 01:50:08;;;;;;;2.45;0.90;;;23.30;57.90;;;;;;4475087;32;20081;-69
2022/07/15 01:52:34;;;;;;;1.73;0.77;;;23.30;57.90;;;;;;4475390;32;20101;-69
2022/07/15 01:55:00;;;;;;;1.42;0.55;;;23.30;57.90;;;;;;4476357;32;20101;-70
2022/07/15 01:57:26;;;;;;;1.80;0.70;;;23.30;58.00;;;;;;4477921;32;20223;-69
2022/07/15 01:59:52;;;;;;;2.83;0.80;;;23.30;58.00;;;;;;4478008;32;20086;-69
2022/07/15 02:02:17;;;;;;;1.83;0.70;;;23.30;58.00;;;;;;4477753;32;20487;-70
2022/07/15 02:04:44;;;;;;;1.90;0.60;;;23.30;58.00;;;;;;4477819;32;20688;-69
2022/07/15 02:07:10;;;;;;;1.88;0.70;;;23.30;58.00;;;;;;4477723;32;20065;-69
2022/07/15 02:09:35;;;;;;;1.88;0.52;;;23.30;58.00;;;;;;4477911;32;20073;-70
2022/07/15 02:12:02;;;;;;;1.65;0.77;;;23.20;58.00;;;;;;4477767;32;20078;-69
2022/07/15 02:14:28;;;;;;;1.38;0.60;;;23.20;58.00;;;;;;4491909;31;20077;-69
2022/07/15 02:16:53;;;;;;;1.40;0.60;;;23.20;58.00;;;;;;4493564;31;20053;-69
2022/07/15 02:19:19;;;;;;;2.15;0.60;;;23.20;58.00;;;;;;4493283;31;20061;-70
2022/07/15 02:21:45;;;;;;;1.30;0.55;;;23.20;58.10;;;;;;4493238;31;20073;-70
2022/07/15 02:24:11;;;;;;;2.75;0.70;;;23.20;58.10;;;;;;4493476;31;20097;-69
2022/07/15 02:26:36;;;;;;;2.13;0.70;;;23.20;58.10;;;;;;4493223;31;20278;-70
2022/07/15 02:29:02;;;;;;;4.28;0.68;;;23.20;59.00;;;;;;4479091;31;20072;-69
2022/07/15 02:31:28;;;;;;;1.95;0.80;;;23.20;58.10;;;;;;4493011;31;20241;-69
2022/07/15 02:33:54;;;;;;;1.55;0.63;;;23.20;58.10;;;;;;4493153;31;20150;-69
2022/07/15 02:36:20;;;;;;;1.65;0.50;;;23.20;58.10;;;;;;4493280;31;20116;-70
2022/07/15 02:38:46;;;;;;;1.48;0.80;;;23.20;58.20;;;;;;4492973;31;20211;-69
2022/07/15 02:41:12;;;;;;;2.15;0.60;;;23.20;58.10;;;;;;4477166;31;20181;-69
2022/07/15 02:43:38;;;;;;;1.40;0.40;;;23.20;58.10;;;;;;4492729;31;20076;-69
2022/07/15 02:46:05;;;;;;;1.35;0.57;;;23.10;58.10;;;;;;4492914;31;20529;-69
2022/07/15 02:48:31;;;;;;;1.85;0.50;;;23.10;58.10;;;;;;4492737;31;20546;-69
2022/07/15 02:50:57;;;;;;;1.45;0.63;;;23.10;58.10;;;;;;4492998;31;20496;-69
2022/07/15 02:53:28;;;;;;;3.53;0.82;;;23.10;58.20;;;;;;4493001;31;20112;-72
2022/07/15 02:55:55;;;;;;;3.08;0.50;;;23.10;58.20;;;;;;4493082;31;20088;-69
2022/07/15 02:58:22;;;;;;;1.15;0.70;;;23.10;58.20;;;;;;4492775;31;20101;-69
2022/07/15 03:00:49;;;;;;;1.35;0.50;;;23.10;58.20;;;;;;4492629;31;20100;-69
2022/07/15 03:03:15;;;;;;;2.10;0.63;;;23.10;58.20;;;;;;4492813;31;20223;-69
2022/07/15 03:05:41;;;;;;;1.50;0.60;;;23.10;58.20;;;;;;4492472;31;20549;-69
2022/07/15 03:08:07;;;;;;;1.02;0.40;;;23.10;58.30;;;;;;4492938;31;20073;-69
2022/07/15 03:10:33;;;;;;;1.33;0.50;;;23.10;58.30;;;;;;4492561;31;20153;-69
2022/07/15 03:12:59;;;;;;;2.10;0.55;;;23.10;58.30;;;;;;4492015;31;20092;-69
2022/07/15 03:15:26;;;;;;;2.08;0.55;;;23.10;58.30;;;;;;4492325;31;20218;-69
2022/07/15 03:17:51;;;;;;;2.25;0.50;;;23.10;58.30;;;;;;4492465;31;20121;-69
2022/07/15 03:20:17;;;;;;;1.13;0.45;;;23.10;58.30;;;;;;4492750;31;20076;-69
2022/07/15 03:22:43;;;;;;;2.33;0.50;;;23.10;58.30;;;;;;4478165;31;20161;-69
2022/07/15 03:25:09;;;;;;;1.90;0.70;;;23.10;58.30;;;;;;4492552;31;20079;-69
2022/07/15 03:27:35;;;;;;;1.38;0.50;;;23.10;58.40;;;;;;4492223;31;20131;-69
2022/07/15 03:30:01;;;;;;;1.35;0.43;;;23.10;58.40;;;;;;4478171;31;20112;-70
2022/07/15 03:32:27;;;;;;;0.77;0.40;;;23.00;58.40;;;;;;4492201;31;20135;-70
2022/07/15 03:34:56;;;;;;;1.60;0.50;;;23.10;58.40;;;;;;4492352;31;20073;-69
2022/07/15 03:37:22;;;;;;;1.30;0.43;;;23.00;58.40;;;;;;4492404;31;20213;-69
2022/07/15 03:39:48;;;;;;;0.75;0.32;;;23.00;58.40;;;;;;4492014;31;20227;-69
2022/07/15 03:42:14;;;;;;;1.42;0.40;;;23.00;58.40;;;;;;4477853;31;20081;-70
2022/07/15 03:44:40;;;;;;;1.10;0.50;;;23.00;58.40;;;;;;4491929;31;20083;-69
2022/07/15 03:47:06;;;;;;;1.48;0.60;;;23.00;58.40;;;;;;4492235;31;20073;-69
2022/07/15 03:49:32;;;;;;;1.27;0.50;;;23.00;58.40;;;;;;4492024;31;20158;-70
2022/07/15 03:51:57;;;;;;;1.42;0.52;;;23.00;58.50;;;;;;4477599;31;20223;-69
2022/07/15 03:54:24;;;;;;;1.73;0.47;;;23.00;58.50;;;;;;4492189;31;20112;-69
2022/07/15 03:56:50;;;;;;;0.93;0.22;;;23.00;58.50;;;;;;4491866;31;20239;-69
2022/07/15 03:59:18;;;;;;;1.30;0.50;;;23.00;58.50;;;;;;4491980;31;20100;-69
2022/07/15 04:01:44;;;;;;;1.58;0.55;;;23.00;58.50;;;;;;4477624;31;20542;-69
2022/07/15 04:04:10;;;;;;;1.42;0.40;;;23.00;58.60;;;;;;4492206;31;20490;-70
2022/07/15 04:06:37;;;;;;;1.58;0.40;;;23.00;58.60;;;;;;4491788;31;20103;-70
2022/07/15 04:09:03;;;;;;;0.90;0.40;;;23.00;58.60;;;;;;4491613;31;20069;-69
2022/07/15 04:11:29;;;;;;;1.55;0.50;;;23.00;58.60;;;;;;4491773;31;20591;-69
2022/07/15 04:13:55;;;;;;;2.35;0.50;;;23.00;58.60;;;;;;4491144;31;20065;-69
2022/07/15 04:16:21;;;;;;;2.05;0.40;;;23.00;58.60;;;;;;4464687;31;20739;-70
2022/07/15 04:18:46;;;;;;;1.17;0.40;;;23.00;58.60;;;;;;4491204;31;20557;-69
2022/07/15 04:21:12;;;;;;;1.90;0.40;;;22.90;58.60;;;;;;4491798;31;20076;-69
2022/07/15 04:23:38;;;;;;;0.82;0.32;;;22.90;58.60;;;;;;4491673;31;20132;-69
2022/07/15 04:26:04;;;;;;;1.05;0.30;;;22.90;58.60;;;;;;4491482;31;20211;-69
2022/07/15 04:28:30;;;;;;;0.82;0.30;;;22.90;58.60;;;;;;4491582;31;20223;-69
2022/07/15 04:30:56;;;;;;;0.88;0.40;;;22.90;58.60;;;;;;4491393;31;20120;-69
2022/07/15 04:33:23;;;;;;;2.47;0.45;;;22.90;58.60;;;;;;4491654;31;20091;-69
2022/07/15 04:35:49;;;;;;;1.35;0.40;;;22.90;58.60;;;;;;4491899;31;20100;-69
2022/07/15 04:38:14;;;;;;;1.08;0.40;;;22.90;58.70;;;;;;4479455;31;20228;-69
2022/07/15 04:40:41;;;;;;;2.70;0.57;;;22.90;58.70;;;;;;4493485;31;20114;-69
2022/07/15 04:43:07;;;;;;;1.08;0.43;;;22.90;58.60;;;;;;4492680;31;20075;-69
2022/07/15 04:45:33;;;;;;;1.52;0.65;;;22.90;58.70;;;;;;4493540;31;20069;-69
2022/07/15 04:47:59;;;;;;;0.75;0.40;;;22.90;58.70;;;;;;4492909;31;20088;-69
2022/07/15 04:53:26;;;;;;;1.05;0.35;;;22.90;58.70;;;;;;4433198;32;20082;-69
2022/07/15 04:55:52;;;;;;;1.45;0.40;;;22.90;58.70;;;;;;4481157;32;20462;-69
2022/07/15 04:58:17;;;;;;;1.25;0.40;;;22.90;58.80;;;;;;4477117;32;20081;-69
2022/07/15 05:00:45;;;;;;;1.13;0.30;;;22.90;58.80;;;;;;4491422;32;20069;-69
2022/07/15 05:03:11;;;;;;;3.80;0.63;;;22.90;58.80;;;;;;4491252;32;20209;-69
2022/07/15 05:05:37;;;;;;;1.65;0.57;;;22.90;58.80;;;;;;4477071;32;20134;-69
2022/07/15 05:08:04;;;;;;;0.52;0.30;;;22.90;58.80;;;;;;4491334;32;20073;-69
2022/07/15 05:10:30;;;;;;;2.35;0.50;;;22.90;58.80;;;;;;4491132;32;20214;-69
2022/07/15 05:12:57;;;;;;;2.22;0.30;;;22.90;58.80;;;;;;4474064;32;20082;-69
2022/07/15 05:15:23;;;;;;;1.90;0.40;;;22.90;58.80;;;;;;4475357;32;20078;-69
2022/07/15 05:17:49;;;;;;;1.60;0.55;;;22.90;58.80;;;;;;4475675;32;20084;-69
2022/07/15 05:20:15;;;;;;;1.45;0.30;;;22.90;58.80;;;;;;4475562;32;20124;-69
2022/07/15 05:22:41;;;;;;;1.33;0.38;;;22.90;58.90;;;;;;4475231;32;20069;-69
2022/07/15 05:25:07;;;;;;;0.63;0.30;;;22.90;58.80;;;;;;4475602;32;20219;-69
2022/07/15 05:27:33;;;;;;;0.75;0.35;;;22.90;58.80;;;;;;4475238;32;20203;-69
2022/07/15 05:29:58;;;;;;;1.55;0.43;;;22.90;58.80;;;;;;4488567;31;20543;-69
2022/07/15 05:32:24;;;;;;;0.85;0.40;;;22.90;58.80;;;;;;4478187;32;20070;-69
2022/07/15 05:34:50;;;;;;;1.15;0.50;;;22.90;58.80;;;;;;4478407;32;20219;-69
2022/07/15 05:37:16;;;;;;;1.17;0.40;;;22.90;58.80;;;;;;4477127;32;20088;-69
2022/07/15 05:39:53;;;;;;;0.80;0.32;;;22.90;58.90;;;;;;4478039;32;20255;-69
2022/07/15 05:42:22;;;;;;;0.80;0.20;;;22.90;58.90;;;;;;4478488;31;20491;-78
2022/07/15 05:44:48;;;;;;;1.67;0.40;;;22.90;58.90;;;;;;4477933;32;20089;-69
2022/07/15 05:47:15;;;;;;;0.73;0.30;;;22.90;58.90;;;;;;4478220;32;20054;-69
2022/07/15 05:49:43;;;;;;;1.25;0.30;;;22.90;58.90;;;;;;4477971;31;20092;-70
2022/07/15 05:52:09;;;;;;;0.98;0.30;;;22.90;58.90;;;;;;4467360;32;20089;-69
2022/07/15 05:54:37;;;;;;;1.23;0.50;;;22.90;59.00;;;;;;4478084;32;20392;-69
2022/07/15 05:57:03;;;;;;;0.60;0.30;;;22.80;58.90;;;;;;4477866;32;20096;-69
2022/07/15 05:59:29;;;;;;;0.75;0.30;;;22.80;59.00;;;;;;4490142;31;20406;-73
2022/07/15 06:01:55;;;;;;;1.33;0.30;;;22.80;58.90;;;;;;4476747;32;20088;-69
2022/07/15 06:04:21;;;;;;;0.93;0.40;;;22.80;59.00;;;;;;4489897;31;20073;-69
2022/07/15 06:06:47;;;;;;;0.80;0.30;;;22.80;59.00;;;;;;4477677;32;20166;-69
2022/07/15 06:09:13;;;;;;;0.90;0.30;;;22.80;59.00;;;;;;4477998;31;20219;-69
2022/07/15 06:11:39;;;;;;;0.20;0.10;;;22.80;59.10;;;;;;4477644;32;20154;-69
2022/07/15 06:14:05;;;;;;;0.80;0.55;;;22.80;59.00;;;;;;4473461;32;20084;-69
2022/07/15 06:16:31;;;;;;;0.93;0.30;;;22.80;59.00;;;;;;4462221;32;20656;-69
2022/07/15 06:18:57;;;;;;;0.90;0.30;;;22.80;59.10;;;;;;4462043;32;20121;-69
2022/07/15 06:21:22;;;;;;;1.02;0.50;;;22.80;59.10;;;;;;4461247;32;20066;-69
2022/07/15 06:23:48;;;;;;;1.38;0.35;;;22.80;59.10;;;;;;4461965;32;20151;-69
2022/07/15 06:26:14;;;;;;;1.38;0.20;;;22.80;59.10;;;;;;4461096;32;20129;-69
2022/07/15 06:28:40;;;;;;;0.40;0.20;;;22.80;59.10;;;;;;4461968;32;20091;-69
2022/07/15 06:31:06;;;;;;;0.90;0.20;;;22.80;59.10;;;;;;4461723;32;20078;-69
2022/07/15 06:33:32;;;;;;;1.55;0.40;;;22.80;59.10;;;;;;4461905;32;20621;-70
2022/07/15 06:35:58;;;;;;;1.65;0.40;;;22.80;59.10;;;;;;4461753;32;20519;-69
2022/07/15 06:38:24;;;;;;;1.15;0.28;;;22.80;59.10;;;;;;4461910;32;20247;-69
2022/07/15 06:40:49;;;;;;;0.57;0.30;;;22.80;59.10;;;;;;4461244;32;20076;-68
2022/07/15 06:43:15;;;;;;;1.52;0.40;;;22.80;59.10;;;;;;4461653;32;20081;-68
2022/07/15 06:45:41;;;;;;;1.13;0.30;;;22.80;59.10;;;;;;4461743;32;20101;-68
2022/07/15 06:48:07;;;;;;;1.08;0.20;;;22.80;59.10;;;;;;4460306;32;20481;-69
2022/07/15 06:50:34;;;;;;;2.08;0.47;;;22.80;58.90;;;;;;4461740;32;20097;-69
2022/07/15 06:52:59;;;;;;;1.52;0.40;;;22.80;58.90;;;;;;4461558;32;20553;-68
2022/07/15 06:55:25;;;;;;;1.08;0.30;;;22.80;58.80;;;;;;4460297;32;20066;-69
2022/07/15 06:57:52;;;;;;;3.67;0.50;;;22.80;58.70;;;;;;4461634;32;20058;-68
2022/07/15 07:00:18;;;;;;;1.60;0.35;;;22.80;58.70;;;;;;4461448;32;20645;-68
2022/07/15 07:02:46;;;;;;;0.88;0.38;;;22.80;58.70;;;;;;4461403;32;20073;-69
2022/07/15 07:05:12;;;;;;;1.55;0.40;;;22.80;58.70;;;;;;4461284;32;20114;-69
2022/07/15 07:07:38;;;;;;;2.35;0.47;;;22.80;58.70;;;;;;4461477;32;20613;-69
2022/07/15 07:10:05;;;;;;;1.10;0.35;;;22.80;58.70;;;;;;4461385;32;20085;-68
2022/07/15 07:12:31;;;;;;;0.98;0.40;;;22.80;58.70;;;;;;4464338;31;20571;-74
2022/07/15 07:14:57;;;;;;;2.55;0.40;;;22.80;58.70;;;;;;4478650;31;20161;-68
2022/07/15 07:17:23;;;;;;;3.08;0.40;;;22.80;58.70;;;;;;4492355;31;20089;-69
2022/07/15 07:19:48;;;;;;;2.95;0.40;;;22.80;58.70;;;;;;4492529;31;20073;-69
2022/07/15 07:22:14;;;;;;;2.58;0.57;;;22.80;58.70;;;;;;4492341;31;20069;-68
2022/07/15 07:24:40;;;;;;;2.47;0.60;;;22.80;58.70;;;;;;4492384;31;20174;-69
2022/07/15 07:27:06;;;;;;;2.13;0.50;;;22.80;58.70;;;;;;4492344;31;20069;-68
2022/07/15 07:29:32;;;;;;;2.25;0.35;;;22.80;58.70;;;;;;4492201;31;20104;-70
2022/07/15 07:31:58;;;;;;;2.35;0.63;;;22.80;58.70;;;;;;4492280;31;20069;-69
2022/07/15 07:34:23;;;;;;;4.38;0.60;;;22.80;58.70;;;;;;4477837;31;20080;-69
2022/07/15 07:36:49;;;;;;;1.15;0.30;;;22.80;58.80;;;;;;4491903;31;20070;-68
2022/07/15 07:39:16;;;;;;;3.22;0.57;;;22.80;58.70;;;;;;4477675;31;20053;-69
2022/07/15 07:41:42;;;;;;;3.38;0.50;;;22.80;58.70;;;;;;4491652;31;20273;-71
2022/07/15 07:44:08;;;;;;;2.42;0.30;;;22.80;58.70;;;;;;4491407;31;20522;-68
2022/07/15 07:46:34;;;;;;;2.38;0.30;;;22.80;58.80;;;;;;4490186;31;20084;-68
2022/07/15 07:49:00;;;;;;;1.27;0.40;;;22.90;58.80;;;;;;4491643;31;20083;-68
2022/07/15 07:51:26;;;;;;;1.50;0.38;;;22.80;58.70;;;;;;4477157;31;20093;-68
2022/07/15 07:53:52;;;;;;;1.35;0.30;;;22.90;58.70;;;;;;4492303;31;20632;-68
2022/07/15 07:56:18;;;;;;;1.92;0.63;;;22.90;58.60;;;;;;4477387;31;20194;-68
2022/07/15 07:58:44;;;;;;;1.23;0.30;;;22.90;58.60;;;;;;4475326;31;20218;-68
2022/07/15 08:01:09;;;;;;;1.50;0.30;;;22.90;58.50;;;;;;4477217;31;20072;-68
2022/07/15 08:03:35;;;;;;;1.10;0.20;;;23.00;58.60;;;;;;4478388;31;20506;-68
2022/07/15 08:06:01;;;;;;;7.05;0.40;;;23.00;58.60;;;;;;4477647;31;20415;-68
2022/07/15 08:08:27;;;;;;;2.53;0.20;;;23.00;58.50;;;;;;4477364;31;20124;-69
2022/07/15 08:10:56;;;;;;;0.90;0.25;;;23.00;58.50;;;;;;4477824;31;20131;-68
2022/07/15 08:13:25;;;;;;;0.80;0.30;;;23.00;58.40;;;;;;4475885;31;20133;-68
2022/07/15 08:15:53;;;;;;;0.90;0.30;;;23.00;58.50;;;;;;4475847;31;20069;-68
2022/07/15 08:18:20;;;;;;;1.33;0.38;;;23.00;58.40;;;;;;4474767;31;20195;-71
2022/07/15 08:20:46;;;;;;;0.75;0.40;;;23.00;58.40;;;;;;4463413;31;20079;-68
2022/07/15 08:23:14;;;;;;;1.33;0.30;;;23.00;58.40;;;;;;4476360;31;20141;-68
2022/07/15 08:25:39;;;;;;;0.85;0.30;;;23.00;58.40;;;;;;4477413;31;20280;-69
2022/07/15 08:28:06;;;;;;;2.63;0.52;;;23.00;58.40;;;;;;4491355;31;20061;-68
2022/07/15 08:30:35;;;;;;;1.40;0.50;;;23.00;58.40;;;;;;4491316;31;20139;-72
2022/07/15 08:33:02;;;;;;;0.73;0.20;;;23.00;58.40;;;;;;4491391;31;20231;-68
2022/07/15 08:35:29;;;;;;;1.55;0.22;;;23.00;58.40;;;;;;4491589;31;20065;-69
2022/07/15 08:37:55;;;;;;;1.75;0.40;;;23.00;58.40;;;;;;4491179;31;20089;-69
2022/07/15 08:40:21;;;;;;;1.05;0.17;;;23.00;58.40;;;;;;4491387;31;20057;-69
2022/07/15 08:42:47;;;;;;;1.80;0.30;;;23.00;58.40;;;;;;4490905;31;20091;-69
2022/07/15 08:45:15;;;;;;;1.77;0.22;;;23.00;58.30;;;;;;4491359;31;20091;-70
2022/07/15 08:47:44;;;;;;;1.60;0.40;;;23.00;58.30;;;;;;4491153;31;20073;-69
2022/07/15 08:50:14;;;;;;;3.20;0.30;;;23.00;58.30;;;;;;4491289;31;20146;-68
2022/07/15 08:52:41;;;;;;;0.73;0.20;;;23.00;58.30;;;;;;4482344;32;20078;-71
2022/07/15 08:55:07;;;;;;;4.75;0.35;;;23.10;58.30;;;;;;4478517;32;20093;-69
2022/07/15 08:57:34;;;;;;;1.73;0.40;;;23.10;58.30;;;;;;4477215;32;20490;-69
2022/07/15 09:00:00;;;;;;;2.38;0.45;;;23.10;58.30;;;;;;4491150;32;20128;-69
2022/07/15 09:02:26;;;;;;;2.45;0.50;;;23.10;58.20;;;;;;4491349;32;20081;-69
2022/07/15 09:05:22;;;;;;;1.80;0.40;;;23.10;58.20;;;;;;4479384;31;20571;-69
2022/07/15 09:08:06;;;;;;;2.55;0.40;;;23.10;58.20;;;;;;4494386;31;20061;-69
2022/07/15 09:10:56;;;;;;;3.85;0.85;;;23.10;58.20;;;;;;4492401;31;20132;-71
2022/07/15 09:13:33;;;;;;;2.67;0.52;;;23.10;58.20;;;;;;4492903;31;20089;-69
2022/07/15 09:16:04;;;;;;;3.05;0.57;;;23.10;58.20;;;;;;4479753;31;20226;-69
2022/07/15 09:18:36;;;;;;;2.25;0.60;;;23.10;58.10;;;;;;4476875;32;20073;-69
2022/07/15 09:21:13;;;;;;;5.78;0.40;;;23.10;58.10;;;;;;4494113;31;20077;-69
2022/07/15 09:23:39;;;;;;;4.80;0.80;;;23.10;58.00;;;;;;4494132;31;20418;-68
2022/07/15 09:26:36;;;;;;;4.85;0.60;;;23.10;57.90;;;;;;4479873;31;20105;-69
2022/07/15 09:33:34;;;;;;;1.27;0.60;;;23.10;57.80;;;;;;4493927;31;20076;-69
2022/07/15 09:37:55;;;;;;;1.05;0.38;;;23.10;57.60;;;;;;4488390;31;20134;-69
2022/07/15 09:40:21;;;;;;;4.72;0.73;;;23.10;57.60;;;;;;4493943;31;20410;-69
2022/07/15 09:43:06;;;;;;;2.30;0.45;;;23.10;57.50;;;;;;4491733;31;20099;-69
2022/07/15 09:45:33;;;;;;;2.03;0.50;;;23.10;57.40;;;;;;4493657;31;20215;-70
2022/07/15 09:48:12;;;;;;;3.88;0.50;;;23.10;57.50;;;;;;4493766;31;20546;-69
2022/07/15 09:50:39;;;;;;;6.65;0.80;;;23.10;57.50;;;;;;4483958;31;20070;-69
2022/07/15 09:53:13;;;;;;;3.47;0.50;;;23.10;57.50;;;;;;4493901;31;20132;-69
2022/07/15 09:55:40;;;;;;;1.60;0.38;;;23.10;57.40;;;;;;4483468;31;20258;-69
2022/07/15 09:58:08;;;;;;;2.50;0.60;;;23.10;57.40;;;;;;4493802;31;20061;-69
2022/07/15 10:00:36;;;;;;;1.48;0.40;;;23.10;57.30;;;;;;4493533;31;20211;-70
2022/07/15 10:03:02;;;;;;;2.40;0.50;;;23.10;57.30;;;;;;4493750;31;20122;-77
2022/07/15 10:05:30;;;;;;;4.32;0.52;;;23.10;57.20;;;;;;4493487;31;20065;-69
2022/07/15 10:08:00;;;;;;;3.22;0.60;;;23.10;57.10;;;;;;4493677;31;20243;-72
2022/07/15 10:10:26;;;;;;;8.55;0.68;;;23.10;57.10;;;;;;4493477;31;20120;-71
2022/07/15 10:13:17;;;;;;;5.13;0.70;;;23.10;57.00;;;;;;4492969;31;20092;-72
2022/07/15 10:16:17;;;;;;;5.30;0.80;;;23.10;57.10;;;;;;4492710;31;20096;-70
2022/07/15 10:18:55;;;;;;;1.67;0.52;;;23.10;57.50;;;;;;4478903;31;20081;-71
2022/07/15 10:21:24;;;;;;;4.10;0.57;;;23.20;57.70;;;;;;4493355;31;20088;-70
2022/07/15 10:24:44;;;;;;;3.88;0.60;;;23.20;57.70;;;;;;4493274;31;20077;-71
2022/07/15 10:27:18;;;;;;;2.63;0.50;;;23.30;58.00;;;;;;4428722;32;20153;-73
2022/07/15 10:29:45;;;;;;;2.92;0.50;;;23.30;57.60;;;;;;4483554;31;20062;-72
2022/07/15 10:32:10;;;;;;;4.65;0.82;;;23.40;57.50;;;;;;4493246;31;20407;-71
2022/07/15 10:34:38;;;;;;;3.72;0.40;;;23.40;57.60;;;;;;4493074;31;20714;-70
2022/07/15 10:37:12;;;;;;;4.15;0.50;;;23.40;57.50;;;;;;4493229;31;20147;-70
2022/07/15 10:39:57;;;;;;;1.83;0.55;;;23.40;57.20;;;;;;4493019;31;20542;-68
2022/07/15 10:42:24;;;;;;;1.95;0.50;;;23.40;57.30;;;;;;4478646;31;20113;-68
2022/07/15 10:45:00;;;;;;;4.35;0.40;;;23.50;57.10;;;;;;4492596;31;20495;-68
2022/07/15 10:47:26;;;;;;;4.35;0.60;;;23.50;57.20;;;;;;4487723;31;20127;-68
2022/07/15 10:49:53;;;;;;;1.98;0.40;;;23.50;57.10;;;;;;4492721;31;20112;-68
2022/07/15 10:52:30;;;;;;;3.47;0.70;;;23.50;57.00;;;;;;4492815;31;20150;-69
2022/07/15 10:54:57;;;;;;;1.75;0.60;;;23.50;57.00;;;;;;4478727;31;20091;-68
2022/07/15 10:57:41;;;;;;;1.77;0.50;;;23.40;57.00;;;;;;4487456;31;20250;-69
2022/07/15 11:00:25;;;;;;;2.78;0.73;;;23.40;57.00;;;;;;4489386;31;20088;-68
2022/07/15 11:03:10;;;;;;;4.13;0.68;;;23.40;56.90;;;;;;4492767;31;20644;-68
2022/07/15 11:06:04;;;;;;;2.40;0.77;;;23.40;56.80;;;;;;4492701;31;20392;-68
2022/07/15 11:08:42;;;;;;;;;;;23.40;56.70;;;;;;4491185;31;20619;-67
2022/07/15 11:11:14;;;;;;;4.65;0.70;;;23.40;56.40;;;;;;4492633;31;20103;-68
2022/07/15 11:13:42;;;;;;;3.30;0.60;;;23.40;56.60;;;;;;4491836;31;20073;-68
2022/07/15 11:16:13;;;;;;;2.30;0.50;;;23.40;56.60;;;;;;4492324;31;20434;-68
2022/07/15 11:18:46;;;;;;;1.45;0.40;;;23.40;56.80;;;;;;4492244;31;20104;-68
2022/07/15 11:21:13;;;;;;;3.92;0.85;;;23.40;56.90;;;;;;4476196;31;20203;-68
2022/07/15 11:23:42;;;;;;;3.22;0.68;;;23.40;56.90;;;;;;4491967;31;20186;-68
2022/07/15 11:26:08;;;;;;;3.22;0.57;;;23.40;57.00;;;;;;4491871;31;20077;-68
2022/07/15 11:28:36;;;;;;;4.22;0.60;;;23.40;57.00;;;;;;4492139;31;20088;-68
2022/07/15 11:31:02;;;;;;;2.38;0.60;;;23.30;57.00;;;;;;4493870;31;20526;-70
2022/07/15 11:33:30;;;;;;;3.97;0.60;;;23.40;57.10;;;;;;4492624;31;20065;-67
2022/07/15 11:35:57;;;;;;;5.53;0.70;;;23.40;57.20;;;;;;4491870;31;20178;-68
2022/07/15 11:38:26;;;;;;;3.42;0.65;;;23.30;57.30;;;;;;4491249;31;20168;-66
2022/07/15 11:46:26;;;;;;;6.05;0.85;;;23.30;57.80;;;;;;4491483;31;20399;-67
2022/07/15 11:48:52;;;;;;;5.97;0.68;;;23.30;57.90;;;;;;4491523;31;20081;-67
2022/07/15 11:51:25;;;;;;;2.67;0.52;;;23.30;58.10;;;;;;4491379;31;20084;-68
2022/07/15 11:53:51;;;;;;;4.45;0.77;;;23.30;58.20;;;;;;4490697;31;20084;-67
2022/07/15 11:56:17;;;;;;;3.35;0.68;;;23.30;58.20;;;;;;4493514;31;20080;-68
2022/07/15 11:58:45;;;;;;;3.17;0.70;;;23.30;58.30;;;;;;4491215;31;20197;-67
2022/07/15 12:01:28;;;;;;;3.45;0.60;;;23.30;58.50;;;;;;4493132;31;20128;-67
2022/07/15 12:03:56;;;;;;;1.15;0.50;;;23.30;58.60;;;;;;4490760;31;20065;-68
2022/07/15 12:06:28;;;;;;;7.47;0.80;;;23.30;58.60;;;;;;4492973;31;20073;-68
2022/07/15 12:09:03;;;;;;;3.92;0.60;;;23.30;58.70;;;;;;4490955;31;20140;-67
2022/07/15 12:11:32;;;;;;;3.15;0.68;;;23.30;58.80;;;;;;4492513;31;20061;-68
2022/07/15 12:14:06;;;;;;;5.32;0.93;;;23.30;58.90;;;;;;4491221;31;20151;-73
2022/07/15 12:16:41;;;;;;;2.55;0.85;;;23.30;59.10;;;;;;4478115;31;20132;-68
2022/07/15 12:19:17;;;;;;;;;;;23.30;59.10;;;;;;4490432;31;20108;-68
2022/07/15 12:21:46;;;;;;;1.70;0.70;;;23.30;59.10;;;;;;4485030;31;20017;-69
2022/07/15 12:24:14;;;;;;;3.33;0.68;;;23.30;59.20;;;;;;4482499;31;20111;-70
2022/07/15 12:26:44;;;;;;;4.50;0.55;;;23.20;59.20;;;;;;4483903;31;20096;-70
2022/07/15 12:29:11;;;;;;;4.20;0.57;;;23.30;59.40;;;;;;4491722;31;20192;-69
2022/07/15 12:31:39;;;;;;;3.65;0.55;;;23.30;59.40;;;;;;4489561;31;20116;-69
2022/07/15 12:34:05;;;;;;;2.22;0.60;;;23.30;59.50;;;;;;4467885;31;20085;-70
2022/07/15 12:36:34;;;;;;;3.05;0.50;;;23.30;59.50;;;;;;4491568;31;20072;-69
2022/07/15 12:39:04;;;;;;;3.47;0.60;;;23.30;59.40;;;;;;4486231;31;20100;-69
2022/07/15 12:41:30;;;;;;;2.17;0.50;;;23.30;59.40;;;;;;4491850;31;20088;-69
2022/07/15 12:43:59;;;;;;;3.25;0.60;;;23.30;59.40;;;;;;4491187;31;20170;-69
2022/07/15 12:46:52;;;;;;;4.70;0.47;;;23.30;59.40;;;;;;4491228;31;20073;-68
2022/07/15 12:49:37;;;;;;;1.55;0.50;;;23.40;59.40;;;;;;4487106;31;20077;-68
2022/07/15 12:52:20;;;;;;;2.30;0.40;;;23.30;59.30;;;;;;4491014;31;20116;-68
2022/07/15 12:54:46;;;;;;;2.97;0.40;;;23.30;59.20;;;;;;4491522;32;20112;-68
2022/07/15 12:57:33;;;;;;;6.38;0.68;;;23.30;59.20;;;;;;4491227;32;20081;-68
2022/07/15 13:00:06;;;;;;;1.95;0.55;;;23.30;59.20;;;;;;4491477;32;20472;-68
2022/07/15 13:02:52;;;;;;;2.05;0.60;;;23.30;59.30;;;;;;4477459;32;20073;-68
2022/07/15 13:05:18;;;;;;;1.42;0.52;;;23.30;59.20;;;;;;4491071;32;20076;-70
2022/07/15 13:07:44;;;;;;;1.10;0.38;;;23.30;59.30;;;;;;4491244;32;20388;-68
2022/07/15 13:10:10;;;;;;;1.83;0.30;;;23.30;59.30;;;;;;4491219;32;20085;-69
2022/07/15 13:12:36;;;;;;;1.55;0.50;;;23.30;59.20;;;;;;4491137;32;20146;-68